Time;durP1;ratioP1;P1;durP2;ratioP2;P2;SDS_P1;SDS_P2;PMS_P1;PMS_P2;Temp;Humidity;BMP_temperature;BMP_pressure;BME280_temperature;BME280_humidity;BME280_pressure;Samples;Min_cycle;Max_cycle;Signal;HPM_P1;HPM_P2
2021/11/17 02:27:16;;;;;;;48.97;24.97;;;;;;;;;;5009662;28;20423;-78
2021/11/17 02:30:00;;;;;;;54.50;25.80;;;;;;;;;;5006911;28;20465;-80
2021/11/17 02:32:29;;;;;;;49.63;23.80;;;;;;;;;;5010738;28;20493;-80
2021/11/17 02:35:12;;;;;;;53.20;25.83;;;;;;;;;;5008823;28;20452;-78
2021/11/17 02:37:47;;;;;;;48.53;25.47;;;;;;;;;;5017745;28;20474;-80
2021/11/17 02:40:13;;;;;;;46.50;23.77;;;;;;;;;;5012316;28;20980;-77
2021/11/17 02:42:45;;;;;;;55.73;27.73;;;;;;;;;;5008983;28;20415;-78
2021/11/17 02:45:13;;;;;;;48.30;24.57;;;;;;;;;;5011536;28;20180;-79
2021/11/17 02:47:59;;;;;;;48.13;25.50;;;;;;;;;;5009198;28;20511;-80
2021/11/17 02:50:24;;;;;;;48.40;25.00;;;;;;;;;;5009640;28;20474;-80
2021/11/17 02:52:52;;;;;;;47.97;26.07;;;;;;;;;;5011379;28;20432;-80
2021/11/17 02:55:18;;;;;;;45.57;25.93;;;;;;;;;;5008541;28;20197;-80
2021/11/17 02:57:43;;;;;;;47.27;25.97;;;;;;;;;;5010635;28;20432;-80
2021/11/17 03:00:14;;;;;;;46.07;25.93;;;;;;;;;;5011051;28;20211;-78
2021/11/17 03:02:42;;;;;;;48.80;25.73;;;;;;;;;;5006338;28;20238;-80
2021/11/17 03:05:07;;;;;;;49.93;25.27;;;;;;;;;;5010885;28;20497;-81
2021/11/17 03:07:35;;;;;;;46.93;25.03;;;;;;;;;;5011179;28;20443;-78
2021/11/17 03:10:31;;;;;;;46.90;26.60;;;;;;;;;;5008026;28;20224;-79
2021/11/17 03:12:56;;;;;;;51.37;26.60;;;;;;;;;;4999795;28;20443;-80
2021/11/17 03:15:46;;;;;;;50.23;27.53;;;;;;;;;;5010876;28;20999;-79
2021/11/17 03:18:31;;;;;;;53.60;27.77;;;;;;;;;;5013628;28;20180;-79
2021/11/17 03:21:21;;;;;;;52.00;26.63;;;;;;;;;;5008609;28;20461;-77
2021/11/17 03:23:46;;;;;;;51.23;26.40;;;;;;;;;;5013215;28;20529;-78
2021/11/17 03:26:17;;;;;;;57.63;28.70;;;;;;;;;;5013216;28;20443;-79
2021/11/17 03:28:49;;;;;;;48.50;26.33;;;;;;;;;;5015902;28;20199;-77
2021/11/17 03:31:20;;;;;;;54.03;26.30;;;;;;;;;;5013580;28;20443;-81
2021/11/17 03:33:54;;;;;;;53.27;28.87;;;;;;;;;;5016420;28;20549;-80
2021/11/17 03:36:38;;;;;;;54.30;26.93;;;;;;;;;;5031598;28;20472;-77
2021/11/17 03:39:23;;;;;;;53.27;27.50;;;;;;;;;;5010267;28;21018;-79
2021/11/17 03:41:48;;;;;;;56.20;27.00;;;;;;;;;;5021413;28;20440;-81
2021/11/17 03:44:26;;;;;;;55.90;29.30;;;;;;;;;;5016648;28;20439;-82
2021/11/17 03:46:58;;;;;;;58.73;28.30;;;;;;;;;;5013483;28;20185;-81
2021/11/17 03:49:42;;;;;;;63.23;29.60;;;;;;;;;;5014750;28;20463;-80
2021/11/17 03:52:25;;;;;;;58.50;30.10;;;;;;;;;;5015737;28;20474;-81
2021/11/17 03:54:59;;;;;;;55.53;28.10;;;;;;;;;;5018353;28;20487;-78
2021/11/17 03:57:30;;;;;;;54.27;26.80;;;;;;;;;;5016703;28;20509;-81
2021/11/17 03:59:55;;;;;;;53.67;26.40;;;;;;;;;;5014052;28;20478;-81
2021/11/17 04:02:40;;;;;;;56.60;28.37;;;;;;;;;;5015575;28;20941;-82
2021/11/17 04:05:24;;;;;;;53.70;26.87;;;;;;;;;;5015598;28;20249;-79
2021/11/17 04:07:49;;;;;;;53.27;27.03;;;;;;;;;;5016318;28;20932;-80
2021/11/17 04:10:14;;;;;;;51.43;25.40;;;;;;;;;;5014463;28;20474;-78
2021/11/17 04:12:49;;;;;;;52.17;27.47;;;;;;;;;;5013355;28;20235;-80
2021/11/17 04:15:35;;;;;;;52.40;26.53;;;;;;;;;;5016335;28;20196;-78
2021/11/17 04:18:03;;;;;;;57.13;29.20;;;;;;;;;;5033230;28;20447;-78
2021/11/17 04:20:41;;;;;;;53.57;27.07;;;;;;;;;;5012012;28;20839;-78
2021/11/17 04:23:19;;;;;;;54.43;28.10;;;;;;;;;;5012494;28;20434;-78
2021/11/17 04:26:11;;;;;;;52.57;27.10;;;;;;;;;;5017275;28;21465;-81
2021/11/17 04:28:48;;;;;;;53.30;27.80;;;;;;;;;;4999058;28;20439;-80
2021/11/17 04:31:16;;;;;;;60.27;27.87;;;;;;;;;;5010679;28;20443;-78
2021/11/17 04:34:04;;;;;;;56.83;29.20;;;;;;;;;;5009157;28;20440;-78
2021/11/17 04:36:29;;;;;;;49.90;26.90;;;;;;;;;;5011677;28;20451;-81
2021/11/17 04:38:54;;;;;;;56.77;28.90;;;;;;;;;;5011120;28;20493;-78
2021/11/17 04:41:19;;;;;;;50.37;26.43;;;;;;;;;;5013576;28;20204;-78
2021/11/17 04:43:46;;;;;;;55.67;27.87;;;;;;;;;;5014123;28;20236;-77
2021/11/17 04:46:23;;;;;;;47.43;26.67;;;;;;;;;;5010235;28;20299;-77
2021/11/17 04:48:58;;;;;;;46.50;25.83;;;;;;;;;;5011618;28;20435;-78
2021/11/17 04:51:42;;;;;;;53.83;27.77;;;;;;;;;;5017196;28;20438;-77
2021/11/17 04:54:26;;;;;;;47.47;26.27;;;;;;;;;;5026317;28;20472;-78
2021/11/17 04:56:59;;;;;;;45.43;24.57;;;;;;;;;;5014568;28;20431;-77
2021/11/17 04:59:33;;;;;;;51.93;25.53;;;;;;;;;;5011737;28;20456;-77
2021/11/17 05:02:05;;;;;;;47.60;26.90;;;;;;;;;;5019830;28;20434;-78
2021/11/17 05:04:52;;;;;;;50.80;26.37;;;;;;;;;;5011423;28;20866;-78
2021/11/17 05:07:17;;;;;;;50.53;25.13;;;;;;;;;;5012159;28;21187;-79
2021/11/17 05:09:58;;;;;;;49.57;24.90;;;;;;;;;;5012523;28;20462;-79
2021/11/17 05:12:32;;;;;;;51.37;28.07;;;;;;;;;;5012757;28;20169;-77
2021/11/17 05:14:58;;;;;;;50.73;26.90;;;;;;;;;;5014026;28;20537;-78
2021/11/17 05:17:41;;;;;;;54.53;27.50;;;;;;;;;;5009720;28;21045;-77
2021/11/17 05:20:12;;;;;;;49.07;26.33;;;;;;;;;;5017670;28;20268;-76
2021/11/17 05:22:59;;;;;;;49.27;27.53;;;;;;;;;;5015057;28;20826;-79
2021/11/17 05:25:24;;;;;;;56.27;27.17;;;;;;;;;;5013788;28;20434;-79
2021/11/17 05:27:50;;;;;;;56.67;28.03;;;;;;;;;;5007972;28;20498;-78
2021/11/17 05:30:43;;;;;;;56.57;27.07;;;;;;;;;;5019495;28;20714;-79
2021/11/17 05:33:27;;;;;;;54.63;28.30;;;;;;;;;;5014192;28;20174;-73
2021/11/17 05:36:04;;;;;;;47.73;23.60;;;;;;;;;;5013755;28;20459;-74
2021/11/17 05:38:29;;;;;;;52.00;27.37;;;;;;;;;;5013599;28;20430;-75
2021/11/17 05:41:07;;;;;;;47.83;26.77;;;;;;;;;;5012176;28;20501;-79
2021/11/17 05:43:45;;;;;;;51.37;26.30;;;;;;;;;;5010008;28;20215;-76
2021/11/17 05:46:23;;;;;;;52.17;25.70;;;;;;;;;;5015338;28;20929;-79
2021/11/17 05:48:54;;;;;;;52.90;26.73;;;;;;;;;;5017583;28;20971;-80
2021/11/17 05:51:41;;;;;;;54.67;26.23;;;;;;;;;;5011652;28;20435;-78
2021/11/17 05:54:06;;;;;;;49.00;25.47;;;;;;;;;;5011234;28;20531;-76
2021/11/17 05:56:54;;;;;;;53.70;26.17;;;;;;;;;;5011855;28;20543;-76
2021/11/17 05:59:57;;;;;;;48.80;25.80;;;;;;;;;;5007800;28;20700;-77
2021/11/17 06:02:26;;;;;;;45.13;25.90;;;;;;;;;;4955178;28;20461;-77
2021/11/17 06:04:53;;;;;;;49.30;25.90;;;;;;;;;;4951483;28;20442;-77
2021/11/17 06:07:18;;;;;;;49.90;25.87;;;;;;;;;;4980955;28;20435;-76
2021/11/17 06:09:43;;;;;;;49.40;26.23;;;;;;;;;;4996986;23;20507;-78
2021/11/17 06:12:10;;;;;;;57.33;27.77;;;;;;;;;;4974629;28;20186;-75
2021/11/17 06:14:37;;;;;;;56.90;28.30;;;;;;;;;;4975127;28;20201;-75
2021/11/17 06:17:04;;;;;;;48.87;27.37;;;;;;;;;;4976620;28;20624;-75
2021/11/17 06:19:32;;;;;;;49.93;26.67;;;;;;;;;;4975739;28;20522;-79
2021/11/17 06:21:59;;;;;;;49.40;29.10;;;;;;;;;;4983062;28;20422;-80
2021/11/17 06:24:25;;;;;;;45.57;27.90;;;;;;;;;;4974607;28;20436;-75
2021/11/17 06:26:51;;;;;;;54.87;27.20;;;;;;;;;;4977739;28;21190;-75
2021/11/17 06:29:22;;;;;;;58.93;30.03;;;;;;;;;;4975016;28;20476;-77
2021/11/17 06:32:07;;;;;;;53.53;29.17;;;;;;;;;;4983036;28;20859;-75
2021/11/17 06:34:43;;;;;;;55.83;29.80;;;;;;;;;;4977135;28;20499;-78
2021/11/17 06:37:09;;;;;;;53.23;28.00;;;;;;;;;;4978328;28;20502;-78
2021/11/17 06:39:36;;;;;;;53.03;29.27;;;;;;;;;;4976832;28;20449;-77
2021/11/17 06:42:02;;;;;;;60.60;30.50;;;;;;;;;;4989480;28;20423;-76
2021/11/17 06:44:28;;;;;;;66.50;29.20;;;;;;;;;;4980500;28;20454;-75
2021/11/17 06:46:53;;;;;;;62.67;29.50;;;;;;;;;;4975112;28;20854;-76
2021/11/17 06:49:19;;;;;;;59.73;31.50;;;;;;;;;;4968460;28;20885;-76
2021/11/17 06:51:44;;;;;;;68.93;31.27;;;;;;;;;;4974204;28;20257;-74
2021/11/17 06:54:09;;;;;;;63.63;31.20;;;;;;;;;;4974390;28;20205;-78
2021/11/17 06:56:34;;;;;;;60.83;29.43;;;;;;;;;;4973688;28;20632;-80
2021/11/17 06:59:00;;;;;;;65.73;30.53;;;;;;;;;;4973755;28;20564;-78
2021/11/17 07:01:25;;;;;;;63.50;31.63;;;;;;;;;;4975635;28;20182;-78
2021/11/17 07:03:50;;;;;;;70.07;33.63;;;;;;;;;;4974609;28;20550;-79
2021/11/17 07:06:16;;;;;;;70.23;31.53;;;;;;;;;;4975737;28;20277;-78
2021/11/17 07:08:41;;;;;;;69.67;36.07;;;;;;;;;;4975853;28;21563;-79
2021/11/17 07:11:06;;;;;;;68.73;34.57;;;;;;;;;;4975859;28;20185;-76
2021/11/17 07:13:32;;;;;;;68.37;31.97;;;;;;;;;;4971435;28;20282;-80
2021/11/17 07:15:57;;;;;;;66.30;33.83;;;;;;;;;;4972491;28;20280;-78
2021/11/17 07:18:22;;;;;;;69.77;34.40;;;;;;;;;;4974255;28;20243;-79
2021/11/17 07:20:48;;;;;;;60.93;34.57;;;;;;;;;;4974118;28;20194;-78
2021/11/17 07:23:14;;;;;;;76.07;35.17;;;;;;;;;;4975476;28;20181;-79
2021/11/17 07:25:39;;;;;;;73.50;35.03;;;;;;;;;;4979651;28;20244;-78
2021/11/17 07:28:05;;;;;;;74.67;37.03;;;;;;;;;;4972272;28;20438;-77
2021/11/17 07:30:33;;;;;;;78.43;36.37;;;;;;;;;;4971790;28;20206;-77
2021/11/17 07:33:01;;;;;;;75.20;39.27;;;;;;;;;;4974577;28;20178;-77
2021/11/17 07:35:27;;;;;;;84.47;37.97;;;;;;;;;;4974325;28;20458;-77
2021/11/17 07:37:53;;;;;;;71.30;36.90;;;;;;;;;;4969729;28;20817;-78
2021/11/17 07:40:19;;;;;;;77.37;38.73;;;;;;;;;;4975451;28;20699;-77
2021/11/17 07:42:44;;;;;;;74.10;36.80;;;;;;;;;;4974420;28;20428;-79
2021/11/17 07:45:10;;;;;;;82.10;40.07;;;;;;;;;;4976177;28;20183;-76
2021/11/17 07:47:35;;;;;;;79.07;38.20;;;;;;;;;;4975796;28;20656;-75
2021/11/17 07:50:02;;;;;;;74.97;37.37;;;;;;;;;;4972416;28;20453;-76
2021/11/17 07:52:28;;;;;;;75.33;37.87;;;;;;;;;;4975066;28;20888;-74
2021/11/17 07:54:53;;;;;;;79.83;39.67;;;;;;;;;;4973888;28;20449;-75
2021/11/17 07:57:19;;;;;;;76.40;38.63;;;;;;;;;;4971618;28;20269;-76
2021/11/17 07:59:44;;;;;;;87.90;39.20;;;;;;;;;;4968657;28;20193;-74
2021/11/17 08:02:12;;;;;;;72.33;36.53;;;;;;;;;;4970346;28;20174;-74
2021/11/17 08:04:38;;;;;;;68.60;35.90;;;;;;;;;;4971730;28;20190;-76
2021/11/17 08:07:10;;;;;;;77.80;41.17;;;;;;;;;;4989202;28;21269;-75
2021/11/17 08:09:35;;;;;;;80.40;38.10;;;;;;;;;;4968095;28;20863;-75
2021/11/17 08:12:00;;;;;;;76.03;39.70;;;;;;;;;;4973166;28;20464;-76
2021/11/17 08:14:26;;;;;;;81.87;39.03;;;;;;;;;;4974901;28;20186;-75
2021/11/17 08:16:51;;;;;;;77.87;40.80;;;;;;;;;;4972930;28;20182;-76
2021/11/17 08:19:16;;;;;;;72.00;38.30;;;;;;;;;;4990706;28;20719;-77
2021/11/17 08:21:41;;;;;;;69.90;37.60;;;;;;;;;;4972864;28;20186;-76
2021/11/17 08:24:07;;;;;;;81.20;38.87;;;;;;;;;;4975570;28;20189;-75
2021/11/17 08:26:32;;;;;;;76.70;37.13;;;;;;;;;;4989530;28;20221;-76
2021/11/17 08:28:57;;;;;;;78.50;40.20;;;;;;;;;;4981214;28;20213;-76
2021/11/17 08:31:26;;;;;;;78.87;41.37;;;;;;;;;;4974934;28;20300;-74
2021/11/17 08:33:52;;;;;;;76.23;39.03;;;;;;;;;;4974925;28;20739;-75
2021/11/17 08:36:17;;;;;;;76.90;39.17;;;;;;;;;;4976865;28;20877;-75
2021/11/17 08:38:43;;;;;;;79.50;40.20;;;;;;;;;;4974952;28;20469;-75
2021/11/17 08:41:09;;;;;;;78.30;42.53;;;;;;;;;;4972963;28;20606;-76
2021/11/17 08:43:35;;;;;;;79.77;40.13;;;;;;;;;;4975232;28;20253;-76
2021/11/17 08:46:01;;;;;;;77.17;40.47;;;;;;;;;;4976026;28;20469;-75
2021/11/17 08:48:28;;;;;;;80.80;40.20;;;;;;;;;;4978762;28;20456;-75
2021/11/17 08:50:55;;;;;;;77.27;37.43;;;;;;;;;;4970242;28;20557;-75
2021/11/17 08:53:21;;;;;;;69.77;39.20;;;;;;;;;;4984257;28;20430;-76
2021/11/17 08:55:46;;;;;;;70.27;38.00;;;;;;;;;;4971931;28;20480;-75
2021/11/17 08:58:12;;;;;;;69.67;36.30;;;;;;;;;;4978851;28;21137;-74
2021/11/17 09:00:38;;;;;;;72.90;39.00;;;;;;;;;;4976728;28;20194;-74
2021/11/17 09:03:05;;;;;;;61.70;34.80;;;;;;;;;;4977401;28;20420;-74
2021/11/17 09:05:33;;;;;;;63.47;36.47;;;;;;;;;;4976483;28;20340;-75
2021/11/17 09:07:59;;;;;;;64.77;35.87;;;;;;;;;;4978073;28;20504;-74
2021/11/17 09:10:26;;;;;;;68.50;35.80;;;;;;;;;;4977654;28;20840;-74
2021/11/17 09:12:52;;;;;;;67.13;35.83;;;;;;;;;;4977960;28;20911;-74
2021/11/17 09:15:20;;;;;;;61.37;35.10;;;;;;;;;;4975568;28;20476;-74
2021/11/17 09:17:45;;;;;;;65.67;35.53;;;;;;;;;;4975409;28;20174;-75
2021/11/17 09:20:12;;;;;;;66.33;35.40;;;;;;;;;;4974483;28;20544;-74
2021/11/17 09:22:38;;;;;;;61.70;32.57;;;;;;;;;;4977719;28;20252;-74
2021/11/17 09:25:04;;;;;;;64.53;33.80;;;;;;;;;;4977044;28;20465;-74
2021/11/17 09:27:29;;;;;;;59.27;31.27;;;;;;;;;;4975491;28;20182;-75
2021/11/17 09:29:55;;;;;;;58.30;33.90;;;;;;;;;;4976784;28;20449;-75
2021/11/17 09:32:21;;;;;;;66.23;33.87;;;;;;;;;;4975415;28;21133;-75
2021/11/17 09:34:46;;;;;;;63.43;33.20;;;;;;;;;;4977668;28;20198;-75
2021/11/17 09:37:11;;;;;;;52.93;31.13;;;;;;;;;;4976234;28;20611;-75
2021/11/17 09:39:38;;;;;;;56.77;30.70;;;;;;;;;;4978904;28;20202;-76
2021/11/17 09:42:04;;;;;;;54.83;30.33;;;;;;;;;;4977713;28;20272;-74
2021/11/17 09:44:33;;;;;;;49.77;28.60;;;;;;;;;;4971557;28;20436;-77
2021/11/17 09:47:00;;;;;;;48.10;27.90;;;;;;;;;;4975373;28;20761;-77
2021/11/17 09:49:37;;;;;;;54.17;29.00;;;;;;;;;;4973902;28;20458;-76
2021/11/17 09:52:05;;;;;;;51.57;28.27;;;;;;;;;;4975907;28;20428;-76
2021/11/17 09:54:43;;;;;;;46.30;26.57;;;;;;;;;;4977862;28;20422;-77
2021/11/17 09:57:10;;;;;;;47.70;28.13;;;;;;;;;;4976752;28;20843;-80
2021/11/17 09:59:43;;;;;;;43.50;25.40;;;;;;;;;;4979126;28;20815;-78
2021/11/17 10:02:19;;;;;;;50.20;28.73;;;;;;;;;;4981952;28;20418;-77
2021/11/17 10:04:53;;;;;;;51.13;27.87;;;;;;;;;;4975474;28;20884;-77
2021/11/17 10:10:43;;;;;;;40.80;23.30;;;;;;;;;;4976196;28;20609;-79
2021/11/17 10:13:17;;;;;;;43.20;21.93;;;;;;;;;;4972298;28;21026;-78
2021/11/17 10:15:44;;;;;;;30.47;18.73;;;;;;;;;;4977922;28;20452;-77
2021/11/17 10:18:09;;;;;;;34.47;20.50;;;;;;;;;;4976251;28;20471;-75
2021/11/17 10:20:39;;;;;;;39.30;20.43;;;;;;;;;;4977452;28;20440;-76
2021/11/17 10:23:05;;;;;;;43.40;21.07;;;;;;;;;;4976152;28;20760;-77
2021/11/17 10:25:38;;;;;;;44.17;22.67;;;;;;;;;;4976818;28;20454;-76
2021/11/17 10:28:04;;;;;;;44.20;23.63;;;;;;;;;;4976829;28;20185;-76
2021/11/17 10:30:33;;;;;;;35.00;19.97;;;;;;;;;;4977162;28;20453;-76
2021/11/17 10:32:58;;;;;;;40.33;24.63;;;;;;;;;;4973740;28;20182;-75
2021/11/17 10:35:26;;;;;;;38.00;22.20;;;;;;;;;;4977710;28;20464;-77
2021/11/17 10:38:03;;;;;;;37.63;22.63;;;;;;;;;;4975775;28;20261;-76
2021/11/17 10:40:31;;;;;;;37.07;20.87;;;;;;;;;;4973161;28;20477;-76
2021/11/17 10:43:00;;;;;;;40.60;22.63;;;;;;;;;;4972812;28;20418;-76
2021/11/17 10:45:31;;;;;;;41.23;23.20;;;;;;;;;;4971331;28;20433;-76
2021/11/17 10:47:57;;;;;;;38.47;21.23;;;;;;;;;;4972788;28;20405;-76
2021/11/17 10:50:22;;;;;;;37.23;21.93;;;;;;;;;;4973307;28;20503;-78
2021/11/17 10:52:50;;;;;;;30.97;19.20;;;;;;;;;;4974910;28;20182;-77
2021/11/17 10:55:19;;;;;;;33.43;20.43;;;;;;;;;;4978451;28;20201;-77
2021/11/17 10:57:45;;;;;;;41.20;23.73;;;;;;;;;;4974403;28;20439;-82
2021/11/17 11:00:11;;;;;;;42.97;22.43;;;;;;;;;;4983340;28;20783;-79
2021/11/17 11:02:38;;;;;;;39.00;23.53;;;;;;;;;;4969346;28;20178;-80
2021/11/17 11:05:05;;;;;;;38.90;21.87;;;;;;;;;;4969764;28;20544;-79
2021/11/17 11:07:32;;;;;;;36.00;21.40;;;;;;;;;;4971249;28;20429;-81
2021/11/17 11:10:27;;;;;;;35.93;20.70;;;;;;;;;;4989390;28;20456;-81
2021/11/17 11:12:53;;;;;;;33.63;19.00;;;;;;;;;;4959587;28;20410;-81
2021/11/17 11:15:31;;;;;;;44.90;20.47;;;;;;;;;;4972860;28;20449;-81
2021/11/17 11:18:09;;;;;;;30.20;16.23;;;;;;;;;;4972487;28;20489;-81
2021/11/17 11:20:43;;;;;;;30.40;16.43;;;;;;;;;;4972326;28;20457;-82
2021/11/17 11:23:13;;;;;;;29.00;16.67;;;;;;;;;;4972631;28;20896;-81
2021/11/17 11:25:57;;;;;;;27.77;15.00;;;;;;;;;;4983280;28;20915;-82
2021/11/17 11:28:23;;;;;;;32.10;14.67;;;;;;;;;;4973911;28;20405;-81
2021/11/17 11:31:03;;;;;;;26.40;15.03;;;;;;;;;;4974862;28;20428;-81
2021/11/17 11:33:30;;;;;;;33.33;12.60;;;;;;;;;;4975609;28;20303;-81
2021/11/17 11:36:10;;;;;;;27.53;12.30;;;;;;;;;;4972185;28;20458;-81
2021/11/17 11:38:38;;;;;;;23.27;11.93;;;;;;;;;;4974518;28;20430;-80
2021/11/17 11:41:10;;;;;;;25.83;11.93;;;;;;;;;;4978402;28;20406;-81
2021/11/17 11:43:36;;;;;;;27.77;11.10;;;;;;;;;;4979384;28;25175;-81
2021/11/17 11:46:20;;;;;;;23.70;9.30;;;;;;;;;;4981265;28;25099;-81
2021/11/17 11:48:54;;;;;;;22.93;9.40;;;;;;;;;;4977152;28;25179;-81
2021/11/17 11:51:22;;;;;;;19.40;8.20;;;;;;;;;;4981956;28;25096;-81
2021/11/17 11:54:09;;;;;;;21.20;6.10;;;;;;;;;;4980094;28;20439;-80
2021/11/17 11:56:43;;;;;;;17.23;4.10;;;;;;;;;;4978087;28;25123;-80
2021/11/17 11:59:14;;;;;;;15.63;4.00;;;;;;;;;;4982501;28;25097;-81
2021/11/17 12:01:39;;;;;;;20.37;4.20;;;;;;;;;;4984370;28;21351;-81
2021/11/17 12:04:04;;;;;;;14.80;3.10;;;;;;;;;;4975713;28;20436;-82
2021/11/17 12:06:37;;;;;;;13.30;2.67;;;;;;;;;;4978543;28;20740;-82
2021/11/17 12:09:08;;;;;;;11.90;2.80;;;;;;;;;;4977756;28;20218;-78
2021/11/17 12:11:34;;;;;;;11.77;2.20;;;;;;;;;;4979072;28;20436;-81
2021/11/17 12:14:05;;;;;;;11.50;2.57;;;;;;;;;;4979598;28;20519;-81
2021/11/17 12:16:39;;;;;;;11.13;3.00;;;;;;;;;;4977940;28;20500;-80
2021/11/17 12:19:07;;;;;;;13.03;2.50;;;;;;;;;;4979094;28;21239;-80
2021/11/17 12:21:41;;;;;;;16.23;2.20;;;;;;;;;;4982475;28;20429;-78
2021/11/17 12:24:09;;;;;;;12.00;2.70;;;;;;;;;;4978280;28;20468;-79
2021/11/17 12:26:36;;;;;;;14.77;2.40;;;;;;;;;;4976292;28;21001;-79
2021/11/17 12:29:21;;;;;;;12.20;2.57;;;;;;;;;;4979027;28;20975;-80
2021/11/17 12:32:05;;;;;;;15.27;3.77;;;;;;;;;;4988178;28;20865;-80
2021/11/17 12:34:38;;;;;;;12.53;3.20;;;;;;;;;;4979428;28;20935;-80
2021/11/17 12:37:10;;;;;;;18.33;3.33;;;;;;;;;;4977294;28;20459;-79
2021/11/17 12:39:55;;;;;;;8.30;2.87;;;;;;;;;;4980219;28;21051;-80
2021/11/17 12:42:35;;;;;;;9.00;2.13;;;;;;;;;;4979047;28;20452;-79
2021/11/17 12:45:11;;;;;;;14.03;2.50;;;;;;;;;;4979645;28;20426;-80
2021/11/17 12:47:42;;;;;;;11.93;2.60;;;;;;;;;;4979413;28;20413;-80
2021/11/17 12:50:10;;;;;;;10.27;3.07;;;;;;;;;;4977955;28;20438;-81
2021/11/17 12:52:38;;;;;;;14.57;2.60;;;;;;;;;;4979334;28;20426;-80
2021/11/17 12:55:24;;;;;;;10.20;2.70;;;;;;;;;;4979089;28;20540;-79
2021/11/17 12:57:52;;;;;;;9.63;2.93;;;;;;;;;;4980114;28;20417;-79
2021/11/17 13:00:17;;;;;;;10.60;2.37;;;;;;;;;;4975815;28;20532;-81
2021/11/17 13:03:12;;;;;;;17.07;2.93;;;;;;;;;;4972747;28;20985;-79
2021/11/17 13:05:42;;;;;;;10.50;2.07;;;;;;;;;;4966274;28;20333;-79
2021/11/17 13:08:08;;;;;;;9.30;2.73;;;;;;;;;;4975825;28;20455;-79
2021/11/17 13:10:33;;;;;;;9.63;2.67;;;;;;;;;;4990427;28;20475;-80
2021/11/17 13:13:18;;;;;;;10.90;2.83;;;;;;;;;;4976526;28;20646;-78
2021/11/17 13:15:53;;;;;;;9.30;2.23;;;;;;;;;;4977683;28;20206;-79
2021/11/17 13:18:25;;;;;;;9.80;2.30;;;;;;;;;;4974429;28;20848;-78
2021/11/17 13:20:52;;;;;;;8.30;2.40;;;;;;;;;;4977702;28;20489;-78
2021/11/17 13:23:26;;;;;;;12.97;2.60;;;;;;;;;;4982132;28;20432;-80
2021/11/17 13:25:56;;;;;;;12.37;2.90;;;;;;;;;;4975776;28;20481;-77
2021/11/17 13:28:35;;;;;;;9.10;2.13;;;;;;;;;;4975820;28;20957;-79
2021/11/17 13:31:20;;;;;;;18.20;3.80;;;;;;;;;;4973441;28;20452;-77
2021/11/17 13:33:56;;;;;;;7.00;2.17;;;;;;;;;;4975362;28;20516;-80
2021/11/17 13:36:34;;;;;;;9.60;2.70;;;;;;;;;;4976273;28;20969;-78
2021/11/17 13:38:59;;;;;;;13.07;3.00;;;;;;;;;;4974688;28;20448;-80
2021/11/17 13:41:24;;;;;;;16.20;2.60;;;;;;;;;;4978771;28;20429;-80
2021/11/17 13:43:50;;;;;;;11.37;2.77;;;;;;;;;;4977824;28;20182;-76
2021/11/17 13:46:18;;;;;;;10.93;2.60;;;;;;;;;;4978292;28;20617;-76
2021/11/17 13:48:44;;;;;;;11.43;3.20;;;;;;;;;;4975295;28;20194;-76
2021/11/17 13:51:11;;;;;;;6.70;2.30;;;;;;;;;;4976371;28;21106;-77
2021/11/17 13:53:36;;;;;;;10.37;2.40;;;;;;;;;;4972983;28;20933;-77
2021/11/17 13:56:01;;;;;;;9.07;2.70;;;;;;;;;;4976718;28;20523;-77
2021/11/17 13:58:27;;;;;;;13.97;2.63;;;;;;;;;;4970917;28;20225;-79
2021/11/17 14:00:52;;;;;;;9.57;2.30;;;;;;;;;;4979432;28;20723;-76
2021/11/17 14:03:17;;;;;;;12.00;2.30;;;;;;;;;;4973648;28;20204;-79
2021/11/17 14:05:43;;;;;;;9.63;2.47;;;;;;;;;;4978056;28;20248;-80
2021/11/17 14:08:10;;;;;;;8.83;2.53;;;;;;;;;;4976285;28;20189;-78
2021/11/17 14:10:35;;;;;;;8.83;2.33;;;;;;;;;;4975630;28;20304;-78
2021/11/17 14:13:01;;;;;;;11.23;2.60;;;;;;;;;;4975384;28;20509;-78
2021/11/17 14:15:27;;;;;;;11.63;2.77;;;;;;;;;;4975789;28;21015;-77
2021/11/17 14:17:52;;;;;;;13.77;2.13;;;;;;;;;;4971230;28;20189;-79
2021/11/17 14:20:18;;;;;;;7.30;2.30;;;;;;;;;;4977727;28;20994;-80
2021/11/17 14:22:44;;;;;;;11.07;2.80;;;;;;;;;;4993276;28;20189;-77
2021/11/17 14:25:17;;;;;;;11.90;2.40;;;;;;;;;;4981682;28;20187;-79
2021/11/17 14:27:43;;;;;;;11.90;2.53;;;;;;;;;;4990139;28;20712;-78
2021/11/17 14:30:12;;;;;;;10.73;2.63;;;;;;;;;;4971450;28;20724;-77
2021/11/17 14:32:39;;;;;;;16.57;2.33;;;;;;;;;;4974295;28;20938;-79
2021/11/17 14:35:05;;;;;;;7.80;1.90;;;;;;;;;;4975638;28;20560;-81
2021/11/17 14:37:30;;;;;;;11.07;2.07;;;;;;;;;;4975299;28;20434;-79
2021/11/17 14:39:55;;;;;;;11.03;2.50;;;;;;;;;;4972361;28;20465;-80
2021/11/17 14:42:21;;;;;;;9.43;2.20;;;;;;;;;;4980827;28;20188;-77
2021/11/17 14:44:46;;;;;;;8.80;1.87;;;;;;;;;;4975679;28;20765;-79
2021/11/17 14:47:12;;;;;;;10.60;2.70;;;;;;;;;;4974437;28;20765;-77
2021/11/17 14:49:38;;;;;;;11.87;2.87;;;;;;;;;;4975891;28;20263;-78
2021/11/17 14:52:08;;;;;;;7.33;2.43;;;;;;;;;;4974196;28;20197;-78
2021/11/17 14:54:34;;;;;;;12.33;2.70;;;;;;;;;;4970618;28;20469;-79
2021/11/17 14:57:00;;;;;;;9.50;2.00;;;;;;;;;;4976421;28;20526;-77
2021/11/17 14:59:25;;;;;;;9.40;2.17;;;;;;;;;;4976654;28;20698;-79
2021/11/17 15:01:50;;;;;;;8.40;2.20;;;;;;;;;;4977426;28;25109;-78
2021/11/17 15:04:16;;;;;;;11.00;2.33;;;;;;;;;;4975722;28;25053;-79
2021/11/17 15:06:42;;;;;;;9.70;2.30;;;;;;;;;;4976217;28;25099;-78
2021/11/17 15:09:08;;;;;;;11.97;2.43;;;;;;;;;;4975651;28;25105;-77
2021/11/17 15:11:45;;;;;;;7.23;1.70;;;;;;;;;;4973981;28;25134;-80
2021/11/17 15:14:10;;;;;;;8.07;2.10;;;;;;;;;;4972675;28;25105;-77
2021/11/17 15:16:35;;;;;;;14.20;3.50;;;;;;;;;;4973904;28;25114;-79
2021/11/17 15:19:01;;;;;;;12.77;1.83;;;;;;;;;;4974908;28;25077;-77
2021/11/17 15:21:26;;;;;;;9.53;2.30;;;;;;;;;;4981109;28;25048;-79
2021/11/17 15:23:52;;;;;;;10.03;2.63;;;;;;;;;;4980674;28;25110;-78
2021/11/17 15:26:17;;;;;;;8.47;2.20;;;;;;;;;;4970519;28;25068;-78
2021/11/17 15:28:45;;;;;;;7.70;2.30;;;;;;;;;;4982805;28;25181;-79
2021/11/17 15:31:12;;;;;;;11.00;2.40;;;;;;;;;;4974250;28;25178;-77
2021/11/17 15:33:37;;;;;;;11.97;2.17;;;;;;;;;;4974116;28;25120;-79
2021/11/17 15:36:04;;;;;;;7.10;1.97;;;;;;;;;;4989228;28;25093;-79
2021/11/17 15:38:29;;;;;;;7.60;2.30;;;;;;;;;;4975613;28;25051;-80
2021/11/17 15:40:56;;;;;;;10.60;2.10;;;;;;;;;;4979563;28;25161;-79
2021/11/17 15:43:22;;;;;;;8.93;2.27;;;;;;;;;;4972017;28;25062;-80
2021/11/17 15:45:48;;;;;;;9.33;1.67;;;;;;;;;;4974636;28;25117;-79
2021/11/17 15:48:14;;;;;;;8.50;2.50;;;;;;;;;;4976868;28;25068;-80
2021/11/17 15:50:52;;;;;;;6.70;1.63;;;;;;;;;;4976153;28;25167;-79
2021/11/17 15:53:18;;;;;;;7.33;2.23;;;;;;;;;;4969729;28;25077;-79
2021/11/17 15:55:43;;;;;;;12.03;2.20;;;;;;;;;;4973976;28;25094;-79
2021/11/17 15:58:08;;;;;;;13.17;2.40;;;;;;;;;;4974411;28;25097;-78
2021/11/17 16:00:34;;;;;;;11.83;2.60;;;;;;;;;;4992838;28;20568;-80
2021/11/17 16:03:00;;;;;;;8.87;2.73;;;;;;;;;;4972005;28;25096;-78
2021/11/17 16:05:26;;;;;;;10.23;2.83;;;;;;;;;;4979021;28;25087;-79
2021/11/17 16:07:51;;;;;;;13.90;2.80;;;;;;;;;;4976605;28;25122;-79
2021/11/17 16:10:19;;;;;;;10.00;3.37;;;;;;;;;;4976843;28;25143;-78
2021/11/17 16:12:44;;;;;;;9.80;3.20;;;;;;;;;;4976513;28;25069;-79
2021/11/17 16:15:10;;;;;;;5.20;1.93;;;;;;;;;;4975467;28;25156;-79
2021/11/17 16:17:37;;;;;;;10.23;2.63;;;;;;;;;;4989657;28;25153;-80
2021/11/17 16:20:07;;;;;;;8.70;2.30;;;;;;;;;;4977088;28;25115;-79
2021/11/17 16:22:35;;;;;;;7.87;2.67;;;;;;;;;;4979559;28;25123;-78
2021/11/17 16:27:49;;;;;;;8.80;3.10;;;;;;;;;;4980153;28;25098;-80
2021/11/17 16:30:16;;;;;;;7.77;2.33;;;;;;;;;;4982894;28;25107;-78
2021/11/17 16:32:41;;;;;;;13.57;3.33;;;;;;;;;;4970916;28;25141;-76
2021/11/17 16:35:08;;;;;;;11.73;2.67;;;;;;;;;;4965287;28;25149;-77
2021/11/17 16:37:34;;;;;;;12.07;2.10;;;;;;;;;;4966695;28;25178;-77
2021/11/17 16:39:59;;;;;;;9.33;2.03;;;;;;;;;;4965156;28;20467;-76
2021/11/17 16:42:24;;;;;;;7.07;1.80;;;;;;;;;;4968128;28;25062;-75
2021/11/17 16:44:50;;;;;;;17.50;3.13;;;;;;;;;;4968210;28;25053;-75
2021/11/17 16:47:15;;;;;;;7.67;1.60;;;;;;;;;;4970267;28;20251;-76
2021/11/17 16:49:43;;;;;;;7.63;2.70;;;;;;;;;;4966804;28;25063;-76
2021/11/17 16:52:17;;;;;;;12.40;3.20;;;;;;;;;;4969698;28;25050;-77
2021/11/17 16:54:44;;;;;;;13.00;2.60;;;;;;;;;;4966003;28;25145;-78
2021/11/17 16:57:09;;;;;;;11.47;2.60;;;;;;;;;;4968358;28;25093;-77
2021/11/17 16:59:35;;;;;;;13.40;3.10;;;;;;;;;;4967230;28;25140;-76
2021/11/17 17:02:00;;;;;;;22.37;4.37;;;;;;;;;;4980657;28;25054;-77
2021/11/17 17:04:26;;;;;;;6.07;2.70;;;;;;;;;;4968249;28;25147;-79
2021/11/17 17:06:52;;;;;;;7.90;3.23;;;;;;;;;;4961564;28;20220;-79
2021/11/17 17:09:18;;;;;;;10.63;3.00;;;;;;;;;;4968789;28;20232;-79
2021/11/17 17:11:43;;;;;;;16.40;3.17;;;;;;;;;;4971397;28;25178;-79